Saint-Pacome, Canada
Current Conditions -  °F | °C
As of 5:53 AM on Friday 24 Oct 2014 (Local Time) from KFVE Reporting Station
Overcast Overcast  
Wind Chill: 39°   Ceiling: 5000
Heat Index: 45°   Visibility: 10mi
Dew Point: 27°   Wind: 12mph
Humidity: 49%   Direction: 20°NNE
Pressure: 29.83"   Gusts: 20mph
Location:  47.42°N, 69.95°W
Report Text: KFVE 240953Z AUTO 02010G17KT 10SM OVC050 07/M03 A2983 RMK AO2 RAB12E42 SLP106 P0000 T00721028
Loading
Personal Weather Stations






























Interactive Weather Map New forecast layout! Learn more

10-Day Weather Forecast

Advertisements
Track Severe Weather on mobile